createdAt,value
2022-11-29T00:01:57.904Z,18.80
2022-11-29T00:04:24.849Z,18.98
2022-11-29T00:06:51.761Z,20.20
2022-11-29T00:09:18.668Z,19.45
2022-11-29T00:11:45.747Z,19.65
2022-11-29T00:14:12.646Z,19.90
2022-11-29T00:16:39.602Z,18.83
2022-11-29T00:19:06.536Z,18.85
2022-11-29T00:21:33.465Z,20.60
2022-11-29T00:24:00.348Z,18.17
2022-11-29T00:26:27.238Z,19.42
2022-11-29T00:28:54.114Z,20.00
2022-11-29T00:31:21.012Z,18.38
2022-11-29T00:33:47.881Z,19.80
2022-11-29T00:36:14.830Z,18.60
2022-11-29T00:38:41.734Z,18.85
2022-11-29T00:41:08.629Z,19.13
2022-11-29T00:43:35.525Z,19.85
2022-11-29T00:46:02.472Z,18.92
2022-11-29T00:48:29.372Z,19.17
2022-11-29T00:50:56.301Z,20.35
2022-11-29T00:53:23.188Z,19.35
2022-11-29T00:55:50.098Z,18.70
2022-11-29T00:58:16.982Z,19.33
2022-11-29T01:00:43.960Z,18.85
2022-11-29T01:03:10.856Z,19.77
2022-11-29T01:05:37.728Z,19.85
2022-11-29T01:08:04.620Z,19.48
2022-11-29T01:10:31.688Z,19.55
2022-11-29T01:12:58.661Z,19.50
2022-11-29T01:15:25.584Z,19.88
2022-11-29T01:17:52.475Z,19.92
2022-11-29T01:20:19.394Z,18.73
2022-11-29T01:22:46.302Z,20.10
2022-11-29T01:25:17.342Z,19.77
2022-11-29T01:27:53.165Z,20.90
2022-11-29T01:30:20.105Z,20.70
2022-11-29T01:32:47.013Z,19.65
2022-11-29T01:35:13.905Z,21.35
2022-11-29T01:37:40.823Z,20.38
2022-11-29T01:40:07.705Z,19.70
2022-11-29T01:42:34.630Z,20.85
2022-11-29T01:45:01.521Z,20.80
2022-11-29T01:47:28.425Z,20.23
2022-11-29T01:49:55.377Z,20.17
2022-11-29T01:52:22.309Z,21.25
2022-11-29T01:54:49.271Z,20.90
2022-11-29T01:57:16.176Z,20.77
2022-11-29T01:59:43.092Z,21.88
2022-11-29T02:02:10.019Z,22.33
2022-11-29T02:04:36.952Z,21.52
2022-11-29T02:07:03.855Z,22.67
2022-11-29T02:09:30.883Z,21.52
2022-11-29T02:11:57.778Z,23.00
2022-11-29T02:14:24.665Z,21.88
2022-11-29T02:16:56.440Z,22.73
2022-11-29T02:19:23.632Z,21.67
2022-11-29T02:21:50.533Z,21.58
2022-11-29T02:24:17.415Z,21.17
2022-11-29T02:26:44.308Z,22.35
2022-11-29T02:29:11.184Z,21.15
2022-11-29T02:31:38.097Z,22.30
2022-11-29T02:34:05.004Z,22.95
2022-11-29T02:36:31.921Z,22.13
2022-11-29T02:38:58.839Z,22.50
2022-11-29T02:41:25.738Z,22.67
2022-11-29T02:43:52.659Z,22.35
2022-11-29T02:46:19.673Z,22.77
2022-11-29T02:48:46.608Z,22.70
2022-11-29T02:51:13.507Z,21.75
2022-11-29T02:53:40.416Z,21.98
2022-11-29T02:56:07.436Z,21.27
2022-11-29T02:58:34.380Z,22.77
2022-11-29T03:01:01.304Z,22.70
2022-11-29T03:03:28.232Z,22.88
2022-11-29T03:05:55.129Z,21.98
2022-11-29T03:08:22.044Z,23.75
2022-11-29T03:10:48.934Z,22.58
2022-11-29T03:13:15.846Z,22.45
2022-11-29T03:15:42.807Z,22.40
2022-11-29T03:18:09.720Z,23.20
2022-11-29T03:20:36.605Z,22.52
2022-11-29T03:23:03.501Z,23.35
2022-11-29T03:25:30.387Z,23.23
2022-11-29T03:27:57.375Z,22.67
2022-11-29T03:30:24.275Z,22.90
2022-11-29T03:32:51.187Z,22.50
2022-11-29T03:35:18.071Z,22.10
2022-11-29T03:37:44.962Z,23.58
2022-11-29T03:40:11.855Z,22.20
2022-11-29T03:42:38.727Z,22.75
2022-11-29T03:45:05.614Z,22.63
2022-11-29T03:47:32.534Z,23.23
2022-11-29T03:49:59.433Z,22.33
2022-11-29T03:52:26.331Z,21.98
2022-11-29T03:54:53.223Z,23.77
2022-11-29T03:57:20.285Z,23.40
2022-11-29T03:59:47.188Z,22.00
2022-11-29T04:02:14.161Z,22.02
2022-11-29T04:04:43.583Z,23.63
2022-11-29T04:07:10.674Z,22.98
2022-11-29T04:09:37.558Z,22.23
2022-11-29T04:12:04.511Z,22.13
2022-11-29T04:14:31.418Z,23.30
2022-11-29T04:16:58.332Z,23.52
2022-11-29T04:19:25.216Z,23.63
2022-11-29T04:21:52.121Z,23.25
2022-11-29T04:24:19.005Z,23.70
2022-11-29T04:26:45.914Z,23.95
2022-11-29T04:29:12.814Z,21.73
2022-11-29T04:31:39.705Z,22.77
2022-11-29T04:34:06.628Z,22.58
2022-11-29T04:36:33.524Z,23.75
2022-11-29T04:39:00.434Z,24.40
2022-11-29T04:41:30.362Z,23.15
2022-11-29T04:43:57.278Z,23.35
2022-11-29T04:46:24.166Z,24.35
2022-11-29T04:48:51.084Z,24.27
2022-11-29T04:51:17.967Z,23.58
2022-11-29T04:53:44.917Z,24.23
2022-11-29T04:56:11.797Z,24.60
2022-11-29T04:58:38.804Z,22.98
2022-11-29T05:01:05.700Z,23.40
2022-11-29T05:03:32.604Z,23.73
2022-11-29T05:05:59.473Z,23.45
2022-11-29T05:08:26.359Z,23.15
2022-11-29T05:10:53.264Z,23.05
2022-11-29T05:13:20.174Z,24.17
2022-11-29T05:15:54.163Z,24.83
2022-11-29T05:18:21.098Z,23.20
2022-11-29T05:20:49.162Z,23.33
2022-11-29T05:23:16.077Z,23.52
2022-11-29T05:25:42.975Z,24.83
2022-11-29T05:28:10.464Z,23.95
2022-11-29T05:30:37.497Z,23.50
2022-11-29T05:33:04.418Z,22.77
2022-11-29T05:35:31.304Z,23.50
2022-11-29T05:37:58.222Z,23.45
2022-11-29T05:40:26.229Z,24.70
2022-11-29T05:42:53.138Z,24.10
2022-11-29T05:45:20.028Z,24.33
2022-11-29T05:47:46.957Z,24.05
2022-11-29T05:50:13.866Z,23.75
2022-11-29T05:52:40.772Z,22.95
2022-11-29T05:55:07.687Z,26.35
2022-11-29T05:57:34.587Z,23.80
2022-11-29T06:00:01.686Z,23.73
2022-11-29T06:02:28.628Z,23.42
2022-11-29T06:04:55.567Z,23.52
2022-11-29T06:07:22.462Z,24.80
2022-11-29T06:09:49.427Z,23.80
2022-11-29T06:12:20.829Z,24.05
2022-11-29T06:14:48.284Z,24.20
2022-11-29T06:17:15.180Z,24.38
2022-11-29T06:19:42.633Z,24.17
2022-11-29T06:22:09.518Z,25.88
2022-11-29T06:24:36.426Z,26.17
2022-11-29T06:27:03.305Z,24.58
2022-11-29T06:29:30.203Z,25.08
2022-11-29T06:31:57.116Z,25.60
2022-11-29T06:34:29.121Z,24.33
2022-11-29T06:36:57.495Z,24.55
2022-11-29T06:39:24.393Z,26.45
2022-11-29T06:41:51.272Z,25.08
2022-11-29T06:44:18.171Z,25.90
2022-11-29T06:46:45.108Z,24.30
2022-11-29T06:49:12.088Z,26.70
2022-11-29T06:51:39.090Z,25.30
2022-11-29T06:54:05.983Z,24.80
2022-11-29T06:56:32.881Z,24.77
2022-11-29T06:59:02.204Z,25.80
2022-11-29T07:01:29.137Z,24.83
2022-11-29T07:03:56.054Z,26.17
2022-11-29T07:06:22.934Z,25.63
2022-11-29T07:08:49.821Z,25.05
2022-11-29T07:11:16.778Z,23.77
2022-11-29T07:13:43.730Z,24.85
2022-11-29T07:16:10.626Z,23.67
2022-11-29T07:18:37.543Z,25.38
2022-11-29T07:21:04.426Z,24.90
2022-11-29T07:23:31.481Z,23.67
2022-11-29T07:25:58.360Z,26.15
2022-11-29T07:28:25.271Z,26.58
2022-11-29T07:30:52.180Z,25.20
2022-11-29T07:33:19.079Z,25.35
2022-11-29T07:35:45.967Z,25.60
2022-11-29T07:38:12.874Z,24.65
2022-11-29T07:40:39.760Z,26.30
2022-11-29T07:43:06.678Z,25.23
2022-11-29T07:45:33.587Z,25.48
2022-11-29T07:48:00.485Z,23.85
2022-11-29T07:50:27.425Z,25.02
2022-11-29T07:52:54.365Z,25.52
2022-11-29T07:55:21.278Z,26.58
2022-11-29T07:57:48.153Z,25.15
2022-11-29T08:00:15.049Z,26.38
2022-11-29T08:02:42.025Z,25.77
2022-11-29T08:05:09.053Z,27.40
2022-11-29T08:07:35.989Z,25.95
2022-11-29T08:10:03.135Z,25.25
2022-11-29T08:12:30.017Z,25.90
2022-11-29T08:14:57.603Z,24.85
2022-11-29T08:17:24.514Z,25.25
2022-11-29T08:19:51.419Z,25.55
2022-11-29T08:22:18.307Z,25.92
2022-11-29T08:24:45.383Z,25.38
2022-11-29T08:27:12.437Z,26.02
2022-11-29T08:29:39.344Z,26.50
2022-11-29T08:32:06.280Z,24.17
2022-11-29T08:34:33.260Z,26.48
2022-11-29T08:37:00.205Z,25.92
2022-11-29T08:39:27.105Z,27.10
2022-11-29T08:41:53.994Z,25.50
2022-11-29T08:44:20.921Z,25.63
2022-11-29T08:46:47.812Z,26.88
2022-11-29T08:49:14.714Z,26.45
2022-11-29T08:51:41.641Z,26.17
2022-11-29T08:54:08.552Z,27.38
2022-11-29T08:59:22.311Z,26.35
2022-11-29T09:01:49.265Z,26.83
2022-11-29T09:04:16.242Z,26.30
2022-11-29T09:06:43.171Z,26.27
2022-11-29T09:09:10.076Z,26.90
2022-11-29T09:11:36.957Z,26.65
2022-11-29T09:14:03.866Z,25.83
2022-11-29T09:16:30.798Z,27.27
2022-11-29T09:18:57.723Z,27.17
2022-11-29T09:21:24.608Z,27.67
2022-11-29T09:23:51.506Z,27.48
2022-11-29T09:26:18.406Z,27.02
2022-11-29T09:28:45.305Z,26.55
2022-11-29T09:31:12.175Z,27.95
2022-11-29T09:33:39.077Z,27.80
2022-11-29T09:36:05.995Z,27.73
2022-11-29T09:38:32.883Z,27.67
2022-11-29T09:40:59.774Z,28.02
2022-11-29T09:43:26.674Z,28.85
2022-11-29T09:45:53.618Z,29.92
2022-11-29T09:48:20.511Z,29.77
2022-11-29T09:50:47.484Z,29.55
2022-11-29T09:53:14.377Z,28.88
2022-11-29T09:55:41.430Z,28.95
2022-11-29T09:58:08.340Z,28.90
2022-11-29T10:00:35.252Z,28.63
2022-11-29T10:03:02.147Z,28.58
2022-11-29T10:05:29.083Z,26.98
2022-11-29T10:07:56.027Z,28.00
2022-11-29T10:10:23.002Z,29.08
2022-11-29T10:12:49.921Z,28.60
2022-11-29T10:15:16.847Z,28.38
2022-11-29T10:17:43.737Z,28.52
2022-11-29T10:20:10.651Z,27.88
2022-11-29T10:22:37.541Z,29.50
2022-11-29T10:25:04.477Z,28.63
2022-11-29T10:27:31.372Z,27.17
2022-11-29T10:29:58.379Z,26.77
2022-11-29T10:32:25.295Z,27.42
2022-11-29T10:34:52.196Z,28.58
2022-11-29T10:37:19.086Z,27.60
2022-11-29T10:39:46.002Z,28.73
2022-11-29T10:42:12.888Z,26.10
2022-11-29T10:44:39.803Z,27.52
2022-11-29T10:47:10.785Z,25.35
2022-11-29T10:49:38.041Z,27.75
2022-11-29T10:52:04.912Z,28.13
2022-11-29T10:54:31.811Z,27.60
2022-11-29T10:56:58.684Z,27.13
2022-11-29T10:59:27.364Z,28.15
2022-11-29T11:01:56.963Z,27.60
2022-11-29T11:04:23.893Z,27.65
2022-11-29T11:06:50.827Z,26.75
2022-11-29T11:09:17.693Z,27.70
2022-11-29T11:11:44.586Z,26.95
2022-11-29T11:14:11.480Z,27.05
2022-11-29T11:16:38.440Z,28.05
2022-11-29T11:19:05.390Z,28.27
2022-11-29T11:21:32.304Z,29.08
2022-11-29T11:23:59.211Z,27.13
2022-11-29T11:26:26.147Z,28.05
2022-11-29T11:28:53.063Z,27.55
2022-11-29T11:31:20.040Z,27.25
2022-11-29T11:33:46.990Z,28.38
2022-11-29T11:36:13.897Z,26.88
2022-11-29T11:38:40.814Z,27.33
2022-11-29T11:41:07.730Z,26.52
2022-11-29T11:43:34.616Z,28.42
2022-11-29T11:46:01.582Z,26.23
2022-11-29T11:48:31.469Z,27.00
2022-11-29T11:50:58.400Z,27.92
2022-11-29T11:53:25.322Z,27.80
2022-11-29T11:55:52.243Z,27.95
2022-11-29T11:58:19.153Z,28.30
2022-11-29T12:03:32.983Z,27.55
2022-11-29T12:05:59.924Z,27.95
2022-11-29T12:08:26.867Z,28.77
2022-11-29T12:10:53.815Z,27.15
2022-11-29T12:13:20.910Z,28.58
2022-11-29T12:15:47.897Z,27.60
2022-11-29T12:18:14.850Z,27.52
2022-11-29T12:20:41.739Z,29.23
2022-11-29T12:23:08.645Z,27.55
2022-11-29T12:25:35.587Z,27.25
2022-11-29T12:28:02.486Z,27.45
2022-11-29T12:30:29.450Z,28.85
2022-11-29T12:32:56.372Z,28.80
2022-11-29T12:35:23.298Z,27.80
2022-11-29T12:37:50.218Z,29.27
2022-11-29T12:40:17.151Z,28.10
2022-11-29T12:42:44.079Z,28.58
2022-11-29T12:45:11.005Z,27.90
2022-11-29T12:47:38.053Z,28.23
2022-11-29T12:50:05.151Z,29.52
2022-11-29T12:52:32.074Z,28.85
2022-11-29T12:54:58.976Z,29.50
2022-11-29T12:57:25.874Z,29.70
2022-11-29T12:59:52.778Z,28.30
2022-11-29T13:02:19.697Z,29.35
2022-11-29T13:04:46.770Z,28.58
2022-11-29T13:07:13.896Z,29.17
2022-11-29T13:09:40.778Z,28.40
2022-11-29T13:12:07.678Z,29.58
2022-11-29T13:14:43.332Z,29.00
2022-11-29T13:17:10.877Z,29.58
2022-11-29T13:19:37.738Z,28.88
2022-11-29T13:22:04.647Z,27.50
2022-11-29T13:24:31.543Z,28.98
2022-11-29T13:26:58.478Z,28.90
2022-11-29T13:29:28.414Z,31.23
2022-11-29T13:31:55.453Z,28.63
2022-11-29T13:34:22.347Z,29.50
2022-11-29T13:36:49.238Z,29.00
2022-11-29T13:39:16.373Z,29.52
2022-11-29T13:41:43.325Z,29.33
2022-11-29T13:44:10.238Z,29.35
2022-11-29T13:46:37.263Z,29.05
2022-11-29T13:49:04.200Z,30.42
2022-11-29T13:51:31.097Z,29.08
2022-11-29T13:53:57.969Z,29.17
2022-11-29T13:56:24.880Z,28.55
2022-11-29T13:58:51.761Z,29.38
2022-11-29T14:01:18.693Z,28.60
2022-11-29T14:03:45.617Z,30.27
2022-11-29T14:06:12.504Z,29.35
2022-11-29T14:09:10.226Z,29.65
2022-11-29T14:11:26.272Z,29.42
2022-11-29T14:13:53.147Z,28.77
2022-11-29T14:16:20.100Z,31.13
2022-11-29T14:18:46.992Z,29.90
2022-11-29T14:21:13.899Z,30.73
2022-11-29T14:23:40.794Z,30.30
2022-11-29T14:26:07.780Z,30.95
2022-11-29T14:28:34.663Z,31.10
2022-11-29T14:31:01.959Z,30.90
2022-11-29T14:33:29.281Z,31.55
2022-11-29T14:35:56.327Z,30.40
2022-11-29T14:38:29.202Z,30.65
2022-11-29T14:40:57.806Z,28.80
2022-11-29T14:43:24.703Z,30.98
2022-11-29T14:45:51.598Z,32.22
2022-11-29T14:48:18.523Z,30.92
2022-11-29T14:50:45.430Z,31.23
2022-11-29T14:53:12.356Z,29.52
2022-11-29T14:55:39.268Z,31.52
2022-11-29T14:58:06.386Z,29.60
2022-11-29T15:00:33.340Z,31.35
2022-11-29T15:03:00.252Z,29.85
2022-11-29T15:05:27.138Z,30.70
2022-11-29T15:07:54.189Z,26.23
2022-11-29T15:10:21.181Z,23.52
2022-11-29T15:12:48.104Z,27.38
2022-11-29T15:15:14.995Z,29.98
2022-11-29T15:17:41.939Z,30.60
2022-11-29T15:20:08.846Z,31.55
2022-11-29T15:22:35.946Z,32.40
2022-11-29T15:25:02.869Z,31.90
2022-11-29T15:27:29.776Z,31.75
2022-11-29T15:29:56.715Z,31.77
2022-11-29T15:32:23.625Z,33.20
2022-11-29T15:34:50.538Z,31.10
2022-11-29T15:37:17.441Z,31.48
2022-11-29T15:39:44.369Z,31.98
2022-11-29T15:42:11.286Z,31.20
2022-11-29T15:44:38.379Z,30.55
2022-11-29T15:47:05.306Z,31.30
2022-11-29T15:49:32.228Z,31.98
2022-11-29T15:51:59.116Z,31.50
2022-11-29T15:54:26.041Z,31.63
2022-11-29T15:56:52.928Z,30.92
2022-11-29T15:59:19.812Z,30.92
2022-11-29T16:01:46.759Z,30.75
2022-11-29T16:04:13.686Z,31.40
2022-11-29T16:06:40.601Z,31.50
2022-11-29T16:09:07.499Z,31.40
2022-11-29T16:11:34.442Z,30.08
2022-11-29T16:14:04.412Z,30.30
2022-11-29T16:16:31.502Z,30.38
2022-11-29T16:18:58.528Z,30.85
2022-11-29T16:21:27.405Z,29.75
2022-11-29T16:23:54.389Z,31.85
2022-11-29T16:26:23.081Z,31.35
2022-11-29T16:28:50.060Z,32.60
2022-11-29T16:31:18.114Z,31.42
2022-11-29T16:33:45.232Z,29.92
2022-11-29T16:36:12.194Z,30.80
2022-11-29T16:38:39.100Z,31.85
2022-11-29T16:41:06.024Z,31.00
2022-11-29T16:43:32.941Z,31.58
2022-11-29T16:46:00.021Z,30.30
2022-11-29T16:48:27.242Z,31.60
2022-11-29T16:50:54.135Z,31.25
2022-11-29T16:53:21.132Z,31.15
2022-11-29T16:55:48.053Z,31.25
2022-11-29T16:58:15.128Z,30.48
2022-11-29T17:00:42.048Z,29.80
2022-11-29T17:03:08.970Z,30.95
2022-11-29T17:05:40.247Z,29.35
2022-11-29T17:08:10.098Z,30.00
2022-11-29T17:10:37.061Z,28.52
2022-11-29T17:13:04.061Z,28.67
2022-11-29T17:15:30.940Z,30.17
2022-11-29T17:17:57.932Z,28.80
2022-11-29T17:20:24.834Z,30.50
2022-11-29T17:22:51.761Z,29.75
2022-11-29T17:25:18.673Z,30.50
2022-11-29T17:27:45.573Z,28.40
2022-11-29T17:30:12.486Z,29.75
2022-11-29T17:32:39.624Z,28.35
2022-11-29T17:35:06.521Z,27.88
2022-11-29T17:37:33.456Z,29.15
2022-11-29T17:40:00.351Z,27.65
2022-11-29T17:42:27.250Z,28.58
2022-11-29T17:44:54.138Z,28.42
2022-11-29T17:47:21.031Z,28.33
2022-11-29T17:49:48.149Z,29.73
2022-11-29T17:52:15.331Z,28.30
2022-11-29T17:54:42.216Z,28.55
2022-11-29T17:57:09.120Z,29.23
2022-11-29T17:59:36.060Z,30.38
2022-11-29T18:02:03.019Z,30.38
2022-11-29T18:04:29.999Z,29.15
2022-11-29T18:06:56.900Z,29.58
2022-11-29T18:09:23.812Z,27.80
2022-11-29T18:11:50.915Z,29.13
2022-11-29T18:14:17.896Z,29.23
2022-11-29T18:16:44.951Z,29.20
2022-11-29T18:19:11.980Z,28.80
2022-11-29T18:21:38.895Z,29.52
2022-11-29T18:24:05.772Z,29.95
2022-11-29T18:26:32.686Z,27.98
2022-11-29T18:28:59.596Z,28.70
2022-11-29T18:31:28.101Z,30.83
2022-11-29T18:33:55.241Z,29.75
2022-11-29T18:36:22.140Z,28.20
2022-11-29T18:38:49.067Z,30.50
2022-11-29T18:41:15.949Z,28.70
2022-11-29T18:43:42.874Z,29.75
2022-11-29T18:46:09.809Z,31.05
2022-11-29T18:48:36.804Z,29.33
2022-11-29T18:51:03.693Z,30.52
2022-11-29T18:53:30.613Z,27.90
2022-11-29T18:55:57.527Z,27.30
2022-11-29T18:58:24.441Z,28.98
2022-11-29T19:00:51.363Z,30.35
2022-11-29T19:03:18.301Z,28.55
2022-11-29T19:05:45.184Z,28.92
2022-11-29T19:08:12.096Z,30.00
2022-11-29T19:10:39.076Z,29.08
2022-11-29T19:13:06.157Z,28.58
2022-11-29T19:15:33.138Z,31.02
2022-11-29T19:18:00.087Z,29.67
2022-11-29T19:20:26.982Z,29.70
2022-11-29T19:23:00.163Z,29.85
2022-11-29T19:25:27.431Z,28.60
2022-11-29T19:27:54.319Z,29.38
2022-11-29T19:30:21.319Z,29.10
2022-11-29T19:32:48.252Z,29.10
2022-11-29T19:35:15.164Z,29.50
2022-11-29T19:37:42.107Z,28.15
2022-11-29T19:40:09.031Z,30.83
2022-11-29T19:42:35.949Z,29.77
2022-11-29T19:45:17.182Z,28.38
2022-11-29T19:47:44.807Z,29.70
2022-11-29T19:50:12.884Z,30.60
2022-11-29T19:52:39.887Z,29.27
2022-11-29T19:55:06.898Z,29.23
2022-11-29T19:57:33.830Z,29.15
2022-11-29T20:03:02.477Z,28.15
2022-11-29T20:47:44.792Z,30.45
2022-11-29T21:04:26.566Z,31.27
2022-11-29T21:07:01.682Z,29.63
2022-11-29T21:20:44.603Z,30.35
2022-11-29T21:23:11.645Z,29.58
2022-11-29T21:25:47.189Z,31.08
2022-11-29T21:28:29.845Z,31.20
2022-11-29T21:31:00.414Z,29.75
2022-11-29T21:41:41.567Z,32.15
2022-11-29T21:44:30.159Z,31.50
2022-11-29T21:46:57.414Z,32.13
2022-11-29T21:49:24.523Z,32.63
2022-11-29T22:27:49.578Z,33.20
2022-11-29T22:38:24.780Z,32.03
2022-11-29T22:41:04.280Z,33.88
2022-11-29T22:43:37.695Z,33.42
2022-11-29T22:46:10.356Z,32.10
2022-11-29T22:49:04.611Z,30.98
2022-11-29T22:51:31.518Z,33.47
2022-11-29T22:53:58.462Z,33.67
2022-11-29T22:56:27.554Z,34.10
2022-11-29T22:58:54.512Z,33.88
2022-11-29T23:01:22.609Z,32.70
2022-11-29T23:06:36.531Z,34.00
2022-11-29T23:09:03.470Z,33.00
2022-11-29T23:11:30.358Z,33.33
2022-11-29T23:13:57.266Z,32.42
2022-11-29T23:16:24.260Z,34.75
2022-11-29T23:18:51.212Z,33.60
2022-11-29T23:21:21.392Z,33.47
2022-11-29T23:23:52.941Z,34.17
2022-11-29T23:26:22.923Z,33.20
2022-11-29T23:28:49.823Z,32.88
2022-11-29T23:31:16.779Z,32.28
2022-11-29T23:33:43.731Z,34.42
2022-11-29T23:36:10.658Z,33.05
2022-11-29T23:38:37.588Z,34.63
2022-11-29T23:41:04.485Z,31.70
2022-11-29T23:43:31.381Z,34.65
2022-11-29T23:45:58.360Z,34.13
2022-11-29T23:48:25.282Z,33.20
2022-11-29T23:50:52.248Z,34.03
2022-11-29T23:53:19.201Z,34.38
2022-11-29T23:55:46.117Z,33.63
2022-11-29T23:58:13.007Z,32.05
